createdAt,value
2023-04-11T00:00:07.151Z,47.24
2023-04-11T00:02:39.257Z,47.15
2023-04-11T00:05:08.436Z,47.70
2023-04-11T00:07:36.791Z,47.30
2023-04-11T00:10:07.227Z,47.21
2023-04-11T00:12:35.351Z,47.17
2023-04-11T00:15:03.858Z,47.17
2023-04-11T00:17:33.664Z,47.16
2023-04-11T00:20:07.928Z,47.39
2023-04-11T00:22:36.581Z,47.17
2023-04-11T00:25:04.637Z,47.81
2023-04-11T00:27:32.745Z,48.56
2023-04-11T00:30:00.871Z,49.31
2023-04-11T00:32:30.618Z,47.40
2023-04-11T00:35:07.759Z,49.21
2023-04-11T00:37:37.134Z,52.41
2023-04-11T00:40:12.484Z,54.55
2023-04-11T00:42:41.550Z,55.94
2023-04-11T00:45:10.852Z,56.03
2023-04-11T00:47:40.460Z,56.41
2023-04-11T00:50:14.289Z,56.60
2023-04-11T00:52:44.370Z,56.44
2023-04-11T00:55:12.968Z,56.51
2023-04-11T00:57:41.996Z,56.45
2023-04-11T01:00:11.958Z,56.68
2023-04-11T01:02:43.410Z,56.57
2023-04-11T01:05:15.066Z,55.97
2023-04-11T01:07:46.406Z,56.28
2023-04-11T01:10:16.671Z,56.54
2023-04-11T01:12:47.383Z,56.24
2023-04-11T01:15:15.976Z,56.30
2023-04-11T01:17:45.655Z,56.05
2023-04-11T01:20:15.859Z,56.15
2023-04-11T01:22:45.110Z,56.16
2023-04-11T01:25:16.628Z,55.71
2023-04-11T01:27:45.047Z,55.84
2023-04-11T01:30:13.868Z,55.57
2023-04-11T01:32:42.032Z,55.45
2023-04-11T01:35:12.841Z,54.86
2023-04-11T01:37:41.014Z,54.60
2023-04-11T01:40:10.083Z,54.46
2023-04-11T01:42:40.560Z,54.50
2023-04-11T01:45:10.452Z,54.57
2023-04-11T01:47:38.719Z,54.36
2023-04-11T01:50:09.033Z,54.43
2023-04-11T01:52:37.550Z,54.57
2023-04-11T01:55:06.260Z,54.80
2023-04-11T01:57:34.316Z,54.18
2023-04-11T02:00:05.964Z,54.08
2023-04-11T02:02:34.031Z,53.58
2023-04-11T02:05:02.102Z,53.54
2023-04-11T02:07:30.330Z,53.35
2023-04-11T02:09:59.222Z,52.64
2023-04-11T02:12:27.433Z,52.56
2023-04-11T02:14:55.474Z,52.25
2023-04-11T02:17:25.918Z,52.46
2023-04-11T02:19:54.899Z,51.94
2023-04-11T02:22:23.069Z,52.05
2023-04-11T02:24:51.364Z,51.50
2023-04-11T02:27:19.613Z,51.69
2023-04-11T02:29:47.599Z,51.72
2023-04-11T02:32:15.701Z,51.96
2023-04-11T02:34:45.278Z,52.00
2023-04-11T02:37:13.358Z,52.05
2023-04-11T02:39:41.437Z,51.59
2023-04-11T02:42:09.407Z,51.09
2023-04-11T02:44:37.446Z,51.29
2023-04-11T02:47:05.623Z,51.39
2023-04-11T02:49:33.691Z,51.57
2023-04-11T02:52:03.242Z,51.52
2023-04-11T02:54:31.278Z,51.94
2023-04-11T02:56:59.341Z,51.98
2023-04-11T02:59:27.392Z,52.11
2023-04-11T03:01:59.673Z,51.93
2023-04-11T03:04:28.033Z,51.76
2023-04-11T03:06:56.741Z,52.12
2023-04-11T03:09:26.472Z,51.75
2023-04-11T03:11:54.472Z,51.50
2023-04-11T03:14:23.077Z,51.63
2023-04-11T03:16:51.228Z,51.58
2023-04-11T03:19:19.704Z,51.75
2023-04-11T03:21:47.662Z,51.75
2023-04-11T03:24:15.728Z,51.94
2023-04-11T03:26:45.128Z,51.90
2023-04-11T03:29:13.111Z,51.87
2023-04-11T03:31:41.416Z,52.13
2023-04-11T03:34:09.481Z,51.81
2023-04-11T03:36:37.589Z,51.53
2023-04-11T03:39:06.283Z,51.31
2023-04-11T03:41:34.394Z,51.63
2023-04-11T03:44:04.493Z,51.95
2023-04-11T03:46:32.701Z,51.88
2023-04-11T03:49:01.250Z,52.07
2023-04-11T03:51:29.446Z,52.10
2023-04-11T03:53:57.725Z,51.86
2023-04-11T03:56:25.763Z,52.31
2023-04-11T03:58:54.008Z,52.34
2023-04-11T04:01:23.765Z,51.96
2023-04-11T04:03:52.209Z,52.21
2023-04-11T04:06:20.284Z,53.03
2023-04-11T04:08:48.261Z,53.66
2023-04-11T04:11:16.208Z,54.24
2023-04-11T04:13:44.533Z,54.80
2023-04-11T04:16:12.666Z,54.77
2023-04-11T04:18:42.275Z,55.14
2023-04-11T04:21:10.414Z,55.09
2023-04-11T04:23:39.466Z,55.35
2023-04-11T04:26:07.955Z,55.33
2023-04-11T04:28:35.954Z,55.62
2023-04-11T04:31:04.188Z,55.60
2023-04-11T04:33:33.265Z,55.52
2023-04-11T04:36:04.411Z,55.96
2023-04-11T04:38:33.654Z,56.12
2023-04-11T04:41:02.117Z,56.66
2023-04-11T04:43:36.068Z,56.69
2023-04-11T04:46:10.434Z,56.53
2023-04-11T04:48:39.305Z,56.05
2023-04-11T04:51:09.468Z,56.15
2023-04-11T04:53:39.108Z,55.96
2023-04-11T04:56:08.132Z,55.73
2023-04-11T04:58:36.146Z,55.69
2023-04-11T05:01:04.263Z,55.84
2023-04-11T05:03:36.316Z,55.38
2023-04-11T05:06:06.602Z,55.30
2023-04-11T05:08:37.549Z,55.39
2023-04-11T05:11:06.287Z,55.29
2023-04-11T05:13:36.072Z,55.36
2023-04-11T05:16:04.516Z,55.17
2023-04-11T05:18:33.036Z,55.34
2023-04-11T05:21:02.709Z,55.46
2023-04-11T05:23:30.837Z,55.56
2023-04-11T05:26:01.319Z,55.43
2023-04-11T05:28:29.431Z,55.63
2023-04-11T05:30:57.600Z,55.78
2023-04-11T05:33:32.022Z,55.59
2023-04-11T05:36:00.508Z,55.71
2023-04-11T05:38:29.377Z,55.46
2023-04-11T05:40:57.963Z,55.86
2023-04-11T05:43:27.679Z,55.75
2023-04-11T05:45:56.123Z,55.85
2023-04-11T05:48:24.277Z,55.64
2023-04-11T05:50:53.265Z,55.65
2023-04-11T05:53:21.367Z,55.50
2023-04-11T05:55:49.454Z,55.55
2023-04-11T05:58:17.527Z,55.56
2023-04-11T06:00:47.393Z,55.52
2023-04-11T06:03:15.792Z,55.63
2023-04-11T06:05:44.378Z,55.52
2023-04-11T06:08:12.670Z,55.59
2023-04-11T06:10:41.072Z,55.63
2023-04-11T06:13:09.543Z,55.67
2023-04-11T06:15:39.691Z,55.54
2023-04-11T06:18:11.891Z,55.34
2023-04-11T06:20:40.205Z,55.29
2023-04-11T06:23:08.811Z,55.69
2023-04-11T06:25:37.083Z,55.40
2023-04-11T06:28:05.837Z,55.57
2023-04-11T06:30:34.750Z,55.62
2023-04-11T06:33:03.308Z,55.43
2023-04-11T06:35:32.952Z,55.75
2023-04-11T06:38:01.103Z,55.52
2023-04-11T06:40:29.850Z,55.55
2023-04-11T06:43:00.826Z,55.63
2023-04-11T06:45:39.357Z,54.98
2023-04-11T06:48:13.768Z,54.75
2023-04-11T06:50:43.618Z,54.54
2023-04-11T06:53:11.911Z,54.45
2023-04-11T06:55:40.076Z,54.35
2023-04-11T06:58:08.115Z,54.53
2023-04-11T07:00:39.117Z,54.38
2023-04-11T07:03:08.941Z,54.61
2023-04-11T07:05:39.532Z,54.44
2023-04-11T07:08:09.510Z,54.66
2023-04-11T07:10:37.530Z,54.86
2023-04-11T07:13:06.232Z,54.73
2023-04-11T07:15:34.298Z,55.01
2023-04-11T07:18:02.984Z,55.08
2023-04-11T07:20:33.136Z,55.15
2023-04-11T07:23:03.218Z,55.20
2023-04-11T07:25:33.812Z,55.45
2023-04-11T07:28:02.124Z,55.10
2023-04-11T07:30:30.274Z,55.13
2023-04-11T07:32:58.391Z,55.10
2023-04-11T07:35:26.486Z,55.18
2023-04-11T07:37:54.583Z,55.20
2023-04-11T07:40:22.930Z,55.18
2023-04-11T07:42:52.709Z,54.99
2023-04-11T07:45:21.406Z,55.14
2023-04-11T07:47:52.160Z,54.99
2023-04-11T07:50:21.502Z,54.99
2023-04-11T07:52:51.404Z,54.89
2023-04-11T07:55:20.000Z,55.09
2023-04-11T07:57:51.095Z,54.86
2023-04-11T08:00:25.161Z,54.83
2023-04-11T08:02:53.481Z,54.93
2023-04-11T08:05:21.931Z,54.64
2023-04-11T08:07:54.436Z,54.76
2023-04-11T08:10:22.484Z,54.63
2023-04-11T08:12:50.783Z,54.45
2023-04-11T08:15:19.013Z,54.27
2023-04-11T08:17:50.535Z,54.29
2023-04-11T08:20:21.660Z,54.46
2023-04-11T08:22:49.947Z,54.32
2023-04-11T08:25:20.094Z,54.18
2023-04-11T08:27:48.304Z,54.66
2023-04-11T08:30:19.592Z,54.12
2023-04-11T08:32:54.195Z,54.08
2023-04-11T08:35:22.724Z,53.79
2023-04-11T08:37:51.880Z,53.90
2023-04-11T08:40:27.140Z,53.68
2023-04-11T08:43:01.533Z,53.87
2023-04-11T08:45:31.081Z,53.89
2023-04-11T08:48:01.336Z,54.17
2023-04-11T08:50:29.893Z,53.95
2023-04-11T08:53:03.939Z,53.61
2023-04-11T08:55:32.668Z,53.75
2023-04-11T08:58:02.945Z,53.53
2023-04-11T09:00:32.986Z,53.15
2023-04-11T09:03:05.390Z,52.35
2023-04-11T09:05:35.757Z,52.23
2023-04-11T09:08:07.521Z,52.31
2023-04-11T09:10:38.055Z,52.38
2023-04-11T09:13:21.754Z,52.05
2023-04-11T09:16:06.662Z,51.82
2023-04-11T09:18:37.795Z,51.54
2023-04-11T09:21:09.888Z,51.88
2023-04-11T09:23:38.651Z,51.83
2023-04-11T09:26:13.160Z,51.75
2023-04-11T09:28:44.685Z,51.76
2023-04-11T09:31:14.396Z,51.84
2023-04-11T09:33:57.151Z,51.78
2023-04-11T09:36:28.633Z,51.91
2023-04-11T09:38:57.366Z,52.00
2023-04-11T09:41:32.998Z,51.67
2023-04-11T09:44:02.398Z,51.85
2023-04-11T09:46:30.869Z,51.87
2023-04-11T09:49:02.746Z,51.80
2023-04-11T09:53:40.435Z,52.17
2023-04-11T09:54:24.306Z,52.39
2023-04-11T09:56:52.801Z,52.43
2023-04-11T09:59:22.885Z,52.66
2023-04-11T10:01:52.965Z,52.99
2023-04-11T10:04:23.289Z,53.40
2023-04-11T10:07:08.507Z,53.56
2023-04-11T10:09:46.183Z,53.79
2023-04-11T10:12:32.093Z,54.05
2023-04-11T10:15:08.395Z,54.07
2023-04-11T10:17:37.775Z,54.12
2023-04-11T10:20:45.136Z,54.37
2023-04-11T10:23:14.189Z,54.34
2023-04-11T10:25:53.629Z,54.35
2023-04-11T10:28:33.269Z,54.33
2023-04-11T10:31:07.086Z,54.72
2023-04-11T10:33:36.433Z,54.73
2023-04-11T10:36:10.726Z,54.88
2023-04-11T10:38:51.701Z,54.71
2023-04-11T10:41:31.804Z,54.82
2023-04-11T10:44:18.614Z,54.73
2023-04-11T10:46:54.009Z,54.88
2023-04-11T10:49:48.324Z,55.11
2023-04-11T10:52:23.159Z,55.13
2023-04-11T10:54:54.192Z,55.11
2023-04-11T10:57:23.255Z,55.07
2023-04-11T11:00:02.537Z,55.27
2023-04-11T11:02:41.359Z,55.48
2023-04-11T11:05:24.247Z,55.40
2023-04-11T11:07:54.992Z,55.55
2023-04-11T11:10:40.995Z,55.62
2023-04-11T11:13:10.071Z,55.57
2023-04-11T11:15:39.099Z,55.53
2023-04-11T11:18:11.450Z,55.56
2023-04-11T11:20:40.855Z,55.36
2023-04-11T11:23:14.004Z,55.55
2023-04-11T11:25:42.785Z,55.72
2023-04-11T11:28:11.715Z,55.65
2023-04-11T11:30:52.148Z,55.44
2023-04-11T11:33:22.689Z,55.37
2023-04-11T11:35:55.844Z,55.32
2023-04-11T11:38:28.529Z,55.13
2023-04-11T11:40:57.448Z,55.37
2023-04-11T11:43:27.468Z,55.57
2023-04-11T11:46:09.593Z,55.51
2023-04-11T11:48:38.245Z,55.78
2023-04-11T11:51:07.261Z,55.74
2023-04-11T11:53:40.839Z,55.66
2023-04-11T11:56:17.090Z,55.67
2023-04-11T11:58:46.122Z,55.50
2023-04-11T12:01:17.166Z,55.64
2023-04-11T12:03:46.310Z,55.57
2023-04-11T12:06:16.207Z,55.94
2023-04-11T12:08:54.055Z,55.71
2023-04-11T12:11:22.540Z,55.69
2023-04-11T12:13:54.313Z,55.60
2023-04-11T12:16:23.628Z,55.69
2023-04-11T12:18:51.753Z,55.19
2023-04-11T12:21:19.745Z,55.68
2023-04-11T12:23:49.198Z,55.52
2023-04-11T12:26:17.832Z,55.70
2023-04-11T12:28:45.974Z,55.48
2023-04-11T12:31:14.929Z,55.61
2023-04-11T12:33:43.260Z,55.80
2023-04-11T12:36:14.861Z,55.60
2023-04-11T12:38:43.226Z,55.21
2023-04-11T12:41:31.104Z,55.80
2023-04-11T12:44:02.325Z,55.96
2023-04-11T12:46:30.559Z,55.74
2023-04-11T12:48:58.745Z,56.12
2023-04-11T12:51:27.817Z,55.84
2023-04-11T12:53:59.095Z,55.75
2023-04-11T12:56:29.074Z,55.65
2023-04-11T12:58:57.632Z,55.54
2023-04-11T13:01:26.793Z,55.84
2023-04-11T13:03:56.333Z,56.12
2023-04-11T13:06:39.175Z,56.02
2023-04-11T13:09:07.979Z,56.22
2023-04-11T13:11:37.532Z,56.10
2023-04-11T13:14:05.617Z,56.08
2023-04-11T13:16:47.089Z,56.02
2023-04-11T13:19:15.525Z,55.97
2023-04-11T13:21:44.540Z,56.00
2023-04-11T13:24:12.830Z,56.18
2023-04-11T13:26:45.316Z,56.15
2023-04-11T13:29:21.429Z,56.33
2023-04-11T13:31:50.314Z,56.40
2023-04-11T13:34:19.339Z,56.28
2023-04-11T13:36:49.646Z,56.21
2023-04-11T13:39:18.625Z,56.50
2023-04-11T13:41:52.804Z,56.01
2023-04-11T13:44:21.238Z,56.05
2023-04-11T13:46:53.588Z,56.43
2023-04-11T13:49:24.670Z,56.52
2023-04-11T13:51:52.910Z,56.58
2023-04-11T13:54:22.895Z,56.76
2023-04-11T13:56:54.399Z,56.79
2023-04-11T13:59:22.992Z,56.67
2023-04-11T14:01:51.092Z,56.57
2023-04-11T14:04:19.331Z,56.96
2023-04-11T14:06:47.851Z,56.87
2023-04-11T14:09:16.117Z,57.21
2023-04-11T14:11:44.227Z,56.65
2023-04-11T14:14:14.002Z,57.10
2023-04-11T14:16:42.367Z,57.08
2023-04-11T14:19:10.674Z,57.11
2023-04-11T14:21:38.798Z,57.19
2023-04-11T14:24:07.365Z,57.15
2023-04-11T14:26:35.781Z,57.19
2023-04-11T14:29:04.465Z,57.11
2023-04-11T14:31:37.230Z,56.94
2023-04-11T14:34:07.250Z,57.16
2023-04-11T14:36:35.423Z,57.04
2023-04-11T14:39:08.272Z,56.98
2023-04-11T14:41:37.086Z,57.18
2023-04-11T14:44:11.076Z,57.53
2023-04-11T14:46:41.167Z,57.48
2023-04-11T14:49:10.382Z,57.19
2023-04-11T14:51:38.870Z,57.40
2023-04-11T14:54:07.556Z,56.96
2023-04-11T14:56:35.930Z,57.36
2023-04-11T14:59:04.295Z,57.19
2023-04-11T15:01:32.442Z,57.44
2023-04-11T15:04:02.463Z,57.43
2023-04-11T15:06:31.927Z,57.83
2023-04-11T15:09:00.559Z,57.56
2023-04-11T15:11:28.694Z,57.98
2023-04-11T15:13:57.581Z,58.00
2023-04-11T15:16:27.734Z,58.22
2023-04-11T15:18:56.985Z,58.49
2023-04-11T15:21:27.647Z,58.27
2023-04-11T15:23:56.719Z,58.47
2023-04-11T15:26:26.424Z,58.19
2023-04-11T15:28:56.512Z,58.13
2023-04-11T15:31:26.934Z,58.25
2023-04-11T15:34:00.235Z,58.26
2023-04-11T15:36:31.724Z,58.19
2023-04-11T15:39:01.116Z,58.38
2023-04-11T15:41:29.370Z,58.44
2023-04-11T15:43:57.961Z,58.68
2023-04-11T15:46:27.284Z,58.88
2023-04-11T15:48:55.552Z,58.73
2023-04-11T15:51:24.303Z,58.79
2023-04-11T15:53:54.780Z,58.64
2023-04-11T15:56:23.111Z,59.04
2023-04-11T15:58:51.473Z,59.08
2023-04-11T16:01:23.075Z,59.27
2023-04-11T16:03:51.647Z,59.11
2023-04-11T16:06:21.959Z,59.03
2023-04-11T16:08:50.960Z,59.12
2023-04-11T16:11:20.535Z,59.55
2023-04-11T16:13:48.694Z,59.75
2023-04-11T16:16:16.970Z,59.50
2023-04-11T16:18:45.028Z,59.73
2023-04-11T16:21:14.664Z,59.79
2023-04-11T16:23:42.982Z,59.64
2023-04-11T16:26:11.353Z,59.55
2023-04-11T16:28:41.555Z,59.63
2023-04-11T16:31:09.677Z,59.99
2023-04-11T16:33:37.752Z,59.60
2023-04-11T16:36:06.531Z,59.73
2023-04-11T16:38:35.180Z,59.74
2023-04-11T16:41:03.521Z,59.75
2023-04-11T16:43:31.522Z,59.93
2023-04-11T16:46:01.269Z,59.87
2023-04-11T16:48:30.754Z,60.34
2023-04-11T16:50:59.256Z,60.63
2023-04-11T16:53:27.326Z,60.23
2023-04-11T16:55:58.093Z,60.40
2023-04-11T16:58:27.377Z,60.28
2023-04-11T17:00:56.068Z,59.46
2023-04-11T17:03:25.797Z,58.40
2023-04-11T17:05:54.033Z,58.07
2023-04-11T17:08:22.309Z,57.52
2023-04-11T17:10:50.398Z,57.21
2023-04-11T17:13:19.638Z,56.86
2023-04-11T17:15:47.756Z,56.60
2023-04-11T17:18:16.067Z,56.27
2023-04-11T17:20:46.832Z,56.19
2023-04-11T17:23:14.946Z,56.27
2023-04-11T17:25:43.083Z,56.15
2023-04-11T17:28:11.154Z,55.62
2023-04-11T17:30:39.669Z,55.91
2023-04-11T17:33:08.073Z,55.22
2023-04-11T17:35:36.408Z,54.88
2023-04-11T17:38:06.138Z,54.19
2023-04-11T17:40:34.659Z,54.45
2023-04-11T17:43:04.013Z,54.32
2023-04-11T17:45:32.368Z,54.20
2023-04-11T17:48:01.429Z,53.20
2023-04-11T17:50:29.890Z,52.90
2023-04-11T17:52:58.197Z,51.88
2023-04-11T17:55:28.119Z,51.28
2023-04-11T17:57:56.211Z,51.21
2023-04-11T18:00:26.386Z,51.14
2023-04-11T18:02:57.823Z,50.71
2023-04-11T18:05:29.517Z,50.50
2023-04-11T18:08:15.583Z,50.11
2023-04-11T18:14:19.213Z,49.21
2023-04-11T18:16:49.671Z,48.20
2023-04-11T18:22:13.793Z,46.73
2023-04-11T18:24:42.247Z,46.46
2023-04-11T18:27:11.345Z,46.46
2023-04-11T18:29:44.106Z,46.19
2023-04-11T18:32:15.332Z,46.52
2023-04-11T18:34:43.388Z,46.74
2023-04-11T18:37:11.437Z,46.82
2023-04-11T18:39:40.046Z,46.25
2023-04-11T18:42:08.858Z,46.43
2023-04-11T18:44:37.838Z,46.14
2023-04-11T18:47:11.196Z,46.62
2023-04-11T18:52:38.167Z,46.23
2023-04-11T18:55:08.252Z,46.11
2023-04-11T18:57:38.027Z,46.39
2023-04-11T19:00:17.377Z,47.22
2023-04-11T19:02:50.909Z,47.69
2023-04-11T19:05:20.706Z,48.24
2023-04-11T19:07:50.679Z,48.26
2023-04-11T19:10:18.704Z,48.51
2023-04-11T19:12:46.901Z,48.91
2023-04-11T19:15:15.238Z,49.85
2023-04-11T19:17:43.568Z,49.75
2023-04-11T19:20:13.721Z,50.04
2023-04-11T19:22:42.949Z,49.59
2023-04-11T19:25:15.498Z,49.66
2023-04-11T19:27:44.284Z,51.07
2023-04-11T19:30:14.218Z,51.43
2023-04-11T19:32:43.693Z,51.81
2023-04-11T19:35:15.282Z,52.12
2023-04-11T19:37:47.590Z,52.44
2023-04-11T19:40:26.103Z,53.26
2023-04-11T19:42:54.980Z,53.14
2023-04-11T19:45:23.513Z,51.96
2023-04-11T19:47:52.475Z,49.24
2023-04-11T19:50:22.997Z,47.33
2023-04-11T19:53:00.214Z,46.15
2023-04-11T19:55:31.867Z,45.73
2023-04-11T19:58:00.558Z,45.54
2023-04-11T20:00:37.102Z,45.58
2023-04-11T20:03:10.976Z,45.57
2023-04-11T20:05:39.995Z,44.98
2023-04-11T20:08:11.478Z,45.67
2023-04-11T20:10:45.832Z,45.39
2023-04-11T20:13:17.255Z,45.13
2023-04-11T20:15:48.180Z,44.82
2023-04-11T20:18:20.769Z,44.50
2023-04-11T20:20:54.531Z,44.57
2023-04-11T20:23:24.954Z,44.96
2023-04-11T20:26:21.983Z,45.17
2023-04-11T20:29:04.440Z,44.67
2023-04-11T20:31:37.554Z,44.60
2023-04-11T20:34:11.946Z,44.85
2023-04-11T20:36:45.608Z,44.50
2023-04-11T20:42:32.275Z,44.81
2023-04-11T20:45:25.234Z,43.68
2023-04-11T20:48:28.153Z,44.40
2023-04-11T20:51:18.843Z,43.82
2023-04-11T20:53:48.906Z,43.84
2023-04-11T20:56:29.264Z,44.22
2023-04-11T20:59:03.802Z,45.18
2023-04-11T21:01:47.798Z,45.15
2023-04-11T21:04:19.929Z,44.21
2023-04-11T21:06:48.979Z,44.29
2023-04-11T21:09:19.170Z,44.05
2023-04-11T21:11:56.980Z,44.28
2023-04-11T21:14:33.469Z,44.45
2023-04-11T21:17:03.119Z,45.01
2023-04-11T21:19:43.293Z,45.17
2023-04-11T21:25:04.313Z,45.01
2023-04-11T21:27:44.054Z,45.08
2023-04-11T21:31:12.864Z,45.34
2023-04-11T21:34:23.520Z,45.41
2023-04-11T21:36:56.761Z,45.44
2023-04-11T21:42:12.447Z,45.32
2023-04-11T21:44:46.719Z,45.86
2023-04-11T21:47:17.344Z,46.11
2023-04-11T21:49:52.503Z,45.82
2023-04-11T21:52:28.442Z,45.81
2023-04-11T21:55:11.439Z,45.81
2023-04-11T21:57:43.225Z,45.71
2023-04-11T22:00:14.405Z,45.54
2023-04-11T22:02:42.980Z,45.60
2023-04-11T22:05:13.056Z,45.99
2023-04-11T22:07:52.115Z,45.91
2023-04-11T22:10:32.405Z,45.90
2023-04-11T22:13:07.640Z,45.46
2023-04-11T22:15:38.638Z,45.30
2023-04-11T22:18:09.697Z,45.23
2023-04-11T22:20:45.662Z,45.04
2023-04-11T22:23:18.866Z,45.25
2023-04-11T22:25:53.555Z,45.21
2023-04-11T22:28:24.741Z,44.93
2023-04-11T22:30:57.928Z,45.31
2023-04-11T22:33:29.702Z,44.19
2023-04-11T22:36:00.849Z,45.71
2023-04-11T22:38:32.190Z,46.66
2023-04-11T22:41:02.039Z,49.39
2023-04-11T22:43:33.039Z,50.79
2023-04-11T22:46:04.617Z,51.55
2023-04-11T22:48:37.486Z,51.12
2023-04-11T22:51:07.653Z,51.70
2023-04-11T22:53:42.607Z,52.47
2023-04-11T22:56:13.060Z,52.79
2023-04-11T22:58:43.473Z,53.21
2023-04-11T23:01:16.022Z,53.39
2023-04-11T23:03:45.618Z,52.73
2023-04-11T23:06:18.429Z,52.17
2023-04-11T23:08:55.531Z,50.71
2023-04-11T23:11:24.198Z,50.61
2023-04-11T23:13:55.238Z,50.67
2023-04-11T23:16:24.008Z,50.84
2023-04-11T23:18:55.486Z,50.90
2023-04-11T23:21:25.714Z,51.69
2023-04-11T23:24:10.586Z,52.25
2023-04-11T23:26:48.642Z,51.48
2023-04-11T23:29:34.220Z,51.73
2023-04-11T23:32:07.206Z,49.88
2023-04-11T23:34:40.359Z,49.46
2023-04-11T23:37:08.872Z,47.99
2023-04-11T23:45:49.974Z,46.87
2023-04-11T23:48:19.315Z,47.43
2023-04-11T23:50:47.269Z,47.64
2023-04-11T23:53:16.068Z,48.12
2023-04-11T23:55:44.151Z,47.93
2023-04-11T23:58:12.093Z,48.63
